createdAt,value
2018-09-18T00:01:56.040Z,81.00
2018-09-18T00:04:24.831Z,81.40
2018-09-18T00:06:53.425Z,81.50
2018-09-18T00:09:21.904Z,81.90
2018-09-18T00:11:50.729Z,81.90
2018-09-18T00:14:25.395Z,81.80
2018-09-18T00:16:54.129Z,81.60
2018-09-18T00:19:22.532Z,81.10
2018-09-18T00:21:50.972Z,81.00
2018-09-18T00:24:19.506Z,81.30
2018-09-18T00:26:47.996Z,81.00
2018-09-18T00:29:17.959Z,81.80
2018-09-18T00:31:46.411Z,81.90
2018-09-18T00:34:14.884Z,81.80
2018-09-18T00:36:43.537Z,81.70
2018-09-18T00:39:11.928Z,82.00
2018-09-18T00:41:40.672Z,82.50
2018-09-18T00:44:09.329Z,82.70
2018-09-18T00:46:38.450Z,82.70
2018-09-18T00:49:07.147Z,83.20
2018-09-18T00:51:35.572Z,82.80
2018-09-18T00:54:04.013Z,83.30
2018-09-18T00:56:32.500Z,82.80
2018-09-18T00:59:02.848Z,82.80
2018-09-18T01:01:31.411Z,82.70
2018-09-18T01:03:59.873Z,83.10
2018-09-18T01:06:28.296Z,83.20
2018-09-18T01:08:56.739Z,83.40
2018-09-18T01:11:25.211Z,83.30
2018-09-18T01:13:53.879Z,83.20
2018-09-18T01:16:22.299Z,83.20
2018-09-18T01:18:50.951Z,83.20
2018-09-18T01:21:19.619Z,84.20
2018-09-18T01:23:54.417Z,84.00
2018-09-18T01:26:23.669Z,84.80
2018-09-18T01:28:52.392Z,84.80
2018-09-18T01:31:20.880Z,84.50
2018-09-18T01:33:49.368Z,84.20
2018-09-18T01:36:20.132Z,84.20
2018-09-18T01:38:48.547Z,84.00
2018-09-18T01:41:17.017Z,84.20
2018-09-18T01:43:46.058Z,84.20
2018-09-18T01:46:14.420Z,83.60
2018-09-18T01:48:42.860Z,83.10
2018-09-18T01:51:11.268Z,83.10
2018-09-18T01:53:41.756Z,83.50
2018-09-18T01:56:10.934Z,83.50
2018-09-18T01:58:39.483Z,83.50
2018-09-18T02:01:08.828Z,83.70
2018-09-18T02:03:37.742Z,84.20
2018-09-18T02:06:06.173Z,84.60
2018-09-18T02:08:35.208Z,84.60
2018-09-18T02:11:04.552Z,84.80
2018-09-18T02:13:33.530Z,84.80
2018-09-18T02:16:02.476Z,85.10
2018-09-18T02:18:31.386Z,85.10
2018-09-18T02:20:59.799Z,85.50
2018-09-18T02:23:28.233Z,85.70
2018-09-18T02:25:57.548Z,86.00
2018-09-18T02:28:26.088Z,85.90
2018-09-18T02:30:55.121Z,85.50
2018-09-18T02:33:23.576Z,85.20
2018-09-18T02:35:52.015Z,85.50
2018-09-18T02:38:20.445Z,86.80
2018-09-18T02:40:49.256Z,86.30
2018-09-18T02:43:24.366Z,86.00
2018-09-18T02:45:52.789Z,85.20
2018-09-18T02:48:21.813Z,85.50
2018-09-18T02:50:51.260Z,85.20
2018-09-18T02:53:19.948Z,85.10
2018-09-18T02:55:48.319Z,85.20
2018-09-18T02:58:17.648Z,85.70
2018-09-18T03:00:46.580Z,85.40
2018-09-18T03:03:15.340Z,85.60
2018-09-18T03:05:43.769Z,86.20
2018-09-18T03:08:14.088Z,86.90
2018-09-18T03:10:42.464Z,86.90
2018-09-18T03:15:47.855Z,86.80
2018-09-18T03:18:17.258Z,86.50
2018-09-18T03:20:45.837Z,86.50
2018-09-18T03:23:14.257Z,87.00
2018-09-18T03:25:42.768Z,87.00
2018-09-18T03:28:11.168Z,87.00
2018-09-18T03:30:39.956Z,87.20
2018-09-18T03:33:08.504Z,87.50
2018-09-18T03:35:37.351Z,87.40
2018-09-18T03:38:06.168Z,87.10
2018-09-18T03:40:34.630Z,86.90
2018-09-18T03:43:03.008Z,87.10
2018-09-18T03:45:31.478Z,87.50
2018-09-18T03:47:59.886Z,88.80
2018-09-18T03:50:28.228Z,87.90
2018-09-18T03:52:56.680Z,87.80
2018-09-18T03:55:25.361Z,88.40
2018-09-18T03:57:53.818Z,88.50
2018-09-18T04:00:22.164Z,87.60
2018-09-18T04:02:50.805Z,87.50
2018-09-18T04:05:19.498Z,87.80
2018-09-18T04:07:47.933Z,88.30
2018-09-18T04:10:16.421Z,89.60
2018-09-18T04:12:46.941Z,89.50
2018-09-18T04:15:15.926Z,89.40
2018-09-18T04:17:44.316Z,89.60
2018-09-18T04:20:12.713Z,89.60
2018-09-18T04:22:41.432Z,89.50
2018-09-18T04:25:10.076Z,89.70
2018-09-18T04:27:38.855Z,89.50
2018-09-18T04:30:07.250Z,89.50
2018-09-18T04:32:35.878Z,89.20
2018-09-18T04:35:04.949Z,89.20
2018-09-18T04:37:33.412Z,89.00
2018-09-18T04:40:02.725Z,88.70
2018-09-18T04:42:31.524Z,88.00
2018-09-18T04:45:00.788Z,88.10
2018-09-18T04:47:29.441Z,88.20
2018-09-18T04:49:58.491Z,88.30
2018-09-18T04:52:26.904Z,88.30
2018-09-18T04:54:55.402Z,88.60
2018-09-18T04:57:24.090Z,88.20
2018-09-18T04:59:52.876Z,88.50
2018-09-18T05:02:21.285Z,88.50
2018-09-18T05:04:50.289Z,88.60
2018-09-18T05:07:18.848Z,88.80
2018-09-18T05:09:47.652Z,89.20
2018-09-18T05:12:16.012Z,89.90
2018-09-18T05:14:46.316Z,89.30
2018-09-18T05:20:00.261Z,89.50
2018-09-18T05:22:28.689Z,89.10
2018-09-18T05:24:57.241Z,87.60
2018-09-18T05:27:25.992Z,85.40
2018-09-18T05:29:54.564Z,82.10
2018-09-18T05:32:22.984Z,77.30
2018-09-18T05:34:51.414Z,74.40
2018-09-18T05:37:20.145Z,70.00
2018-09-18T05:39:48.548Z,66.30
2018-09-18T05:42:17.577Z,63.50
2018-09-18T05:44:46.014Z,60.90
2018-09-18T05:47:15.120Z,58.80
2018-09-18T05:52:31.567Z,55.10
2018-09-18T05:55:00.116Z,53.50
2018-09-18T05:57:29.406Z,51.70
2018-09-18T05:59:58.500Z,50.30
2018-09-18T06:02:26.836Z,48.90
2018-09-18T06:04:55.881Z,46.60
2018-09-18T06:07:24.300Z,44.90
2018-09-18T06:09:58.785Z,43.30
2018-09-18T06:12:27.552Z,42.10
2018-09-18T06:14:56.417Z,41.30
2018-09-18T06:17:24.856Z,40.50
2018-09-18T06:19:53.517Z,38.90
2018-09-18T06:22:22.051Z,37.60
2018-09-18T06:24:50.443Z,36.30
2018-09-18T06:29:58.417Z,34.70
2018-09-18T06:32:26.965Z,33.70
2018-09-18T06:34:55.386Z,33.10
2018-09-18T06:37:23.855Z,32.50
2018-09-18T06:39:52.593Z,31.90
2018-09-18T06:42:21.009Z,31.40
2018-09-18T06:44:49.420Z,31.00
2018-09-18T06:47:21.261Z,30.00
2018-09-18T06:49:50.012Z,29.50
2018-09-18T06:52:18.419Z,29.00
2018-09-18T06:54:47.102Z,28.40
2018-09-18T06:57:17.212Z,28.20
2018-09-18T06:59:45.900Z,28.30
2018-09-18T07:02:14.756Z,28.20
2018-09-18T07:04:44.203Z,27.50
2018-09-18T07:07:12.694Z,27.80
2018-09-18T07:09:41.483Z,28.00
2018-09-18T07:12:10.094Z,27.50
2018-09-18T07:14:38.501Z,27.30
2018-09-18T07:17:06.901Z,26.80
2018-09-18T07:19:35.321Z,26.40
2018-09-18T07:22:04.108Z,25.80
2018-09-18T07:24:32.530Z,25.50
2018-09-18T07:27:00.914Z,24.80
2018-09-18T07:29:29.404Z,24.70
2018-09-18T07:31:57.777Z,24.40
2018-09-18T07:34:26.182Z,24.50
2018-09-18T07:36:55.457Z,23.80
2018-09-18T07:39:23.877Z,24.00
2018-09-18T07:41:52.848Z,24.50
2018-09-18T07:44:21.316Z,23.20
2018-09-18T07:46:50.296Z,23.10
2018-09-18T07:49:19.110Z,23.80
2018-09-18T07:51:48.103Z,23.90
2018-09-18T07:54:16.924Z,23.70
2018-09-18T07:56:45.671Z,23.70
2018-09-18T07:59:14.483Z,23.30
2018-09-18T08:01:42.811Z,22.50
2018-09-18T08:04:11.221Z,23.60
2018-09-18T08:06:39.489Z,23.20
2018-09-18T08:09:10.107Z,23.20
2018-09-18T08:11:38.932Z,24.70
2018-09-18T08:14:07.436Z,25.30
2018-09-18T08:16:35.812Z,26.20
2018-09-18T08:19:04.462Z,27.50
2018-09-18T08:21:32.688Z,27.00
2018-09-18T08:24:01.102Z,26.80
2018-09-18T08:26:29.474Z,26.50
2018-09-18T08:28:58.664Z,27.10
2018-09-18T08:31:27.093Z,27.00
2018-09-18T08:33:56.689Z,27.40
2018-09-18T08:36:25.097Z,27.10
2018-09-18T08:38:53.772Z,27.20
2018-09-18T08:41:22.836Z,27.20
2018-09-18T08:43:51.586Z,27.20
2018-09-18T08:46:19.923Z,27.50
2018-09-18T08:48:58.244Z,28.10
2018-09-18T08:51:27.067Z,28.20
2018-09-18T08:53:55.484Z,27.60
2018-09-18T08:56:24.169Z,27.50
2018-09-18T08:58:53.018Z,27.80
2018-09-18T09:01:21.640Z,27.60
2018-09-18T09:03:50.202Z,27.20
2018-09-18T09:06:18.697Z,27.30
2018-09-18T09:08:47.149Z,26.90
2018-09-18T09:11:15.490Z,26.90
2018-09-18T09:13:43.948Z,26.20
2018-09-18T09:16:12.565Z,25.80
2018-09-18T09:18:40.990Z,25.50
2018-09-18T09:21:09.549Z,25.30
2018-09-18T09:23:37.937Z,25.30
2018-09-18T09:26:07.384Z,25.20
2018-09-18T09:28:35.764Z,25.60
2018-09-18T09:31:04.176Z,25.70
2018-09-18T09:33:32.612Z,25.90
2018-09-18T09:36:00.999Z,27.00
2018-09-18T09:38:29.466Z,25.90
2018-09-18T09:40:57.884Z,26.00
2018-09-18T09:43:33.042Z,25.40
2018-09-18T09:46:01.455Z,25.40
2018-09-18T09:48:34.791Z,25.50
2018-09-18T09:51:04.368Z,24.90
2018-09-18T09:53:32.920Z,24.50
2018-09-18T09:56:01.736Z,23.90
2018-09-18T09:58:31.017Z,24.50
2018-09-18T10:01:04.750Z,25.00
2018-09-18T10:03:33.416Z,24.90
2018-09-18T10:06:02.209Z,25.00
2018-09-18T10:08:32.489Z,24.80
2018-09-18T10:11:00.958Z,25.10
2018-09-18T10:13:29.390Z,25.70
2018-09-18T10:15:59.409Z,25.30
2018-09-18T10:18:30.424Z,25.80
2018-09-18T10:20:58.848Z,26.30
2018-09-18T10:23:27.277Z,26.00
2018-09-18T10:25:55.712Z,26.00
2018-09-18T10:28:25.028Z,26.10
2018-09-18T10:30:53.849Z,26.00
2018-09-18T10:33:22.292Z,26.30
2018-09-18T10:35:55.724Z,26.30
2018-09-18T10:38:24.106Z,26.60
2018-09-18T10:40:52.563Z,27.10
2018-09-18T10:43:20.913Z,27.60
2018-09-18T10:45:49.453Z,28.20
2018-09-18T10:48:18.473Z,28.10
2018-09-18T10:50:47.474Z,28.70
2018-09-18T10:53:16.452Z,28.80
2018-09-18T10:55:51.446Z,30.00
2018-09-18T10:58:19.889Z,30.00
2018-09-18T11:00:48.331Z,29.90
2018-09-18T11:03:16.739Z,29.80
2018-09-18T11:05:45.129Z,29.60
2018-09-18T11:08:14.075Z,29.40
2018-09-18T11:10:53.549Z,29.70
2018-09-18T11:16:00.576Z,29.00
2018-09-18T11:18:29.013Z,29.70
2018-09-18T11:20:58.163Z,28.20
2018-09-18T11:23:27.105Z,29.10
2018-09-18T11:25:55.945Z,30.00
2018-09-18T11:28:24.268Z,31.30
2018-09-18T11:30:54.780Z,31.50
2018-09-18T11:33:23.267Z,31.70
2018-09-18T11:35:51.660Z,32.00
2018-09-18T11:38:20.148Z,31.50
2018-09-18T11:40:48.644Z,30.00
2018-09-18T11:43:17.172Z,30.10
2018-09-18T11:45:48.090Z,31.10
2018-09-18T11:48:16.448Z,31.10
2018-09-18T11:50:44.932Z,31.00
2018-09-18T11:53:13.665Z,31.10
2018-09-18T11:55:42.144Z,31.60
2018-09-18T11:58:10.681Z,32.30
2018-09-18T12:00:39.188Z,33.10
2018-09-18T12:03:08.399Z,33.50
2018-09-18T12:05:36.686Z,33.60
2018-09-18T12:08:05.794Z,33.20
2018-09-18T12:10:34.200Z,32.20
2018-09-18T12:13:02.764Z,32.00
2018-09-18T12:15:31.188Z,32.20
2018-09-18T12:17:59.716Z,31.70
2018-09-18T12:23:09.011Z,33.10
2018-09-18T12:25:37.259Z,32.20
2018-09-18T12:28:05.437Z,31.90
2018-09-18T12:30:33.805Z,32.50
2018-09-18T12:33:01.991Z,32.30
2018-09-18T12:35:32.389Z,33.10
2018-09-18T12:38:01.321Z,34.50
2018-09-18T12:40:29.668Z,34.30
2018-09-18T12:42:58.825Z,33.80
2018-09-18T12:45:27.609Z,35.30
2018-09-18T12:47:56.418Z,35.90
2018-09-18T12:50:26.676Z,35.40
2018-09-18T12:52:55.300Z,35.00
2018-09-18T12:55:24.125Z,36.70
2018-09-18T12:57:52.774Z,35.20
2018-09-18T13:00:21.677Z,34.60
2018-09-18T13:02:50.468Z,35.50
2018-09-18T13:05:19.187Z,35.90
2018-09-18T13:07:48.108Z,36.50
2018-09-18T13:10:17.581Z,36.70
2018-09-18T13:12:45.980Z,35.80
2018-09-18T13:15:14.467Z,37.30
2018-09-18T13:17:43.324Z,38.40
2018-09-18T13:20:11.695Z,39.40
2018-09-18T13:25:35.291Z,41.00
2018-09-18T13:28:03.776Z,41.40
2018-09-18T13:30:32.470Z,42.50
2018-09-18T13:33:01.076Z,42.10
2018-09-18T13:35:29.452Z,42.20
2018-09-18T13:37:57.955Z,42.60
2018-09-18T13:40:28.188Z,42.80
2018-09-18T13:42:56.891Z,42.90
2018-09-18T13:45:25.293Z,43.30
2018-09-18T13:47:53.692Z,43.20
2018-09-18T13:50:23.421Z,43.60
2018-09-18T13:52:51.752Z,42.50
2018-09-18T13:55:20.235Z,42.40
2018-09-18T13:57:48.654Z,41.60
2018-09-18T14:00:17.080Z,42.10
2018-09-18T14:02:45.552Z,44.10
2018-09-18T14:05:14.020Z,41.80
2018-09-18T14:07:42.448Z,38.60
2018-09-18T14:10:12.872Z,37.90
2018-09-18T14:12:41.303Z,40.20
2018-09-18T14:15:09.751Z,41.50
2018-09-18T14:17:39.137Z,40.40
2018-09-18T14:20:07.543Z,41.70
2018-09-18T14:22:37.436Z,42.50
2018-09-18T14:25:06.364Z,41.60
2018-09-18T14:27:34.832Z,41.70
2018-09-18T14:30:03.324Z,42.20
2018-09-18T14:32:31.934Z,43.10
2018-09-18T14:35:00.638Z,43.30
2018-09-18T14:37:29.212Z,43.30
2018-09-18T14:39:59.692Z,41.10
2018-09-18T14:42:28.882Z,37.50
2018-09-18T14:44:57.376Z,38.10
2018-09-18T14:47:26.222Z,37.70
2018-09-18T14:49:54.639Z,37.70
2018-09-18T14:52:23.104Z,37.40
2018-09-18T14:54:51.643Z,38.70
2018-09-18T14:57:20.129Z,37.80
2018-09-18T14:59:48.536Z,37.30
2018-09-18T15:02:17.048Z,37.00
2018-09-18T15:04:45.604Z,37.00
2018-09-18T15:07:14.584Z,35.70
2018-09-18T15:09:43.598Z,35.80
2018-09-18T15:12:12.341Z,36.30
2018-09-18T15:14:41.755Z,36.00
2018-09-18T15:17:11.539Z,35.80
2018-09-18T15:19:40.064Z,35.80
2018-09-18T15:22:08.532Z,34.90
2018-09-18T15:24:37.695Z,35.20
2018-09-18T15:27:13.114Z,35.50
2018-09-18T15:29:41.552Z,35.10
2018-09-18T15:32:10.097Z,35.60
2018-09-18T15:34:38.672Z,36.50
2018-09-18T15:37:08.949Z,37.10
2018-09-18T15:39:37.477Z,36.70
2018-09-18T15:42:08.089Z,36.80
2018-09-18T15:44:36.548Z,37.10
2018-09-18T15:47:10.425Z,36.80
2018-09-18T15:49:38.936Z,37.50
2018-09-18T15:52:09.525Z,36.60
2018-09-18T15:54:39.962Z,36.70
2018-09-18T15:57:08.976Z,36.60
2018-09-18T15:59:38.168Z,36.60
2018-09-18T16:02:09.320Z,36.70
2018-09-18T16:04:38.976Z,37.50
2018-09-18T16:07:07.720Z,38.30
2018-09-18T16:09:36.379Z,38.50
2018-09-18T16:12:05.121Z,39.20
2018-09-18T16:14:33.764Z,39.50
2018-09-18T16:17:02.093Z,40.60
2018-09-18T16:19:30.501Z,40.70
2018-09-18T16:21:58.907Z,41.40
2018-09-18T16:24:32.131Z,41.80
2018-09-18T16:27:00.957Z,42.70
2018-09-18T16:29:29.978Z,43.40
2018-09-18T16:31:58.677Z,44.10
2018-09-18T16:34:27.048Z,45.20
2018-09-18T16:36:55.827Z,46.40
2018-09-18T16:39:24.861Z,45.50
2018-09-18T16:41:54.010Z,46.60
2018-09-18T16:44:23.072Z,47.50
2018-09-18T16:46:57.915Z,48.10
2018-09-18T16:49:27.176Z,47.60
2018-09-18T16:51:57.332Z,48.80
2018-09-18T16:54:26.975Z,49.40
2018-09-18T16:56:56.588Z,49.60
2018-09-18T16:59:25.591Z,50.20
2018-09-18T17:01:54.324Z,50.70
2018-09-18T17:04:22.992Z,51.50
2018-09-18T17:06:51.957Z,52.10
2018-09-18T17:09:20.476Z,52.90
2018-09-18T17:11:49.178Z,54.10
2018-09-18T17:14:18.275Z,53.90
2018-09-18T17:16:47.167Z,54.10
2018-09-18T17:19:15.806Z,54.50
2018-09-18T17:21:44.636Z,54.80
2018-09-18T17:24:13.453Z,55.40
2018-09-18T17:26:42.323Z,56.10
2018-09-18T17:29:11.118Z,56.40
2018-09-18T17:31:39.889Z,57.20
2018-09-18T17:34:08.685Z,57.20
2018-09-18T17:36:37.162Z,57.50
2018-09-18T17:39:11.436Z,57.90
2018-09-18T17:41:40.090Z,58.10
2018-09-18T17:44:09.383Z,58.40
2018-09-18T17:46:38.716Z,58.80
2018-09-18T17:49:07.990Z,59.10
2018-09-18T17:51:36.497Z,59.30
2018-09-18T17:54:06.428Z,59.40
2018-09-18T17:56:35.009Z,59.50
2018-09-18T17:59:03.500Z,59.70
2018-09-18T18:01:32.858Z,60.00
2018-09-18T18:04:01.708Z,60.20
2018-09-18T18:06:30.834Z,60.70
2018-09-18T18:08:59.689Z,60.90
2018-09-18T18:11:28.346Z,61.10
2018-09-18T18:13:58.181Z,61.60
2018-09-18T18:16:27.089Z,61.90
2018-09-18T18:18:56.379Z,62.10
2018-09-18T18:21:25.225Z,62.30
2018-09-18T18:23:54.039Z,62.60
2018-09-18T18:26:25.100Z,62.80
2018-09-18T18:28:53.804Z,63.00
2018-09-18T18:31:22.512Z,63.40
2018-09-18T18:33:54.227Z,63.80
2018-09-18T18:36:23.264Z,64.00
2018-09-18T18:38:53.373Z,64.30
2018-09-18T18:41:21.842Z,64.60
2018-09-18T18:43:50.188Z,64.50
2018-09-18T18:46:18.692Z,64.80
2018-09-18T18:48:47.099Z,64.90
2018-09-18T18:51:15.613Z,65.00
2018-09-18T18:53:49.072Z,66.00
2018-09-18T18:56:19.293Z,65.70
2018-09-18T18:58:48.016Z,65.90
2018-09-18T19:01:16.756Z,66.00
2018-09-18T19:03:45.220Z,66.50
2018-09-18T19:06:13.744Z,66.90
2018-09-18T19:08:42.169Z,67.20
2018-09-18T19:11:10.665Z,67.80
2018-09-18T19:13:39.932Z,67.20
2018-09-18T19:16:08.372Z,67.40
2018-09-18T19:18:36.975Z,67.40
2018-09-18T19:21:05.500Z,67.80
2018-09-18T19:23:34.561Z,67.80
2018-09-18T19:26:03.843Z,68.50
2018-09-18T19:28:32.290Z,68.60
2018-09-18T19:31:00.783Z,68.50
2018-09-18T19:33:29.647Z,68.80
2018-09-18T19:35:58.501Z,69.10
2018-09-18T19:38:27.202Z,69.00
2018-09-18T19:40:55.709Z,68.90
2018-09-18T19:43:24.448Z,69.10
2018-09-18T19:45:53.324Z,69.30
2018-09-18T19:48:21.823Z,69.50
2018-09-18T19:50:50.132Z,69.50
2018-09-18T19:53:18.623Z,69.80
2018-09-18T19:55:47.742Z,69.90
2018-09-18T19:58:16.156Z,70.50
2018-09-18T20:00:45.258Z,70.60
2018-09-18T20:03:15.018Z,70.50
2018-09-18T20:05:43.567Z,70.60
2018-09-18T20:08:11.952Z,70.70
2018-09-18T20:10:40.427Z,70.80
2018-09-18T20:13:08.965Z,71.80
2018-09-18T20:15:37.391Z,72.30
2018-09-18T20:18:06.955Z,71.60
2018-09-18T20:23:14.379Z,71.70
2018-09-18T20:25:42.531Z,71.80
2018-09-18T20:28:10.731Z,71.90
2018-09-18T20:30:38.916Z,72.00
2018-09-18T20:33:07.087Z,72.00
2018-09-18T20:35:35.380Z,72.60
2018-09-18T20:38:03.600Z,72.00
2018-09-18T20:40:31.799Z,72.10
2018-09-18T20:43:00.085Z,72.20
2018-09-18T20:45:28.241Z,72.40
2018-09-18T20:47:56.449Z,72.40
2018-09-18T20:50:25.704Z,72.40
2018-09-18T20:52:55.782Z,72.50
2018-09-18T20:55:24.464Z,72.40
2018-09-18T20:57:53.604Z,72.70
2018-09-18T21:00:23.014Z,72.90
2018-09-18T21:02:51.408Z,72.80
2018-09-18T21:05:20.173Z,73.20
2018-09-18T21:07:48.640Z,73.40
2018-09-18T21:10:17.052Z,73.10
2018-09-18T21:12:46.048Z,73.00
2018-09-18T21:15:14.657Z,73.20
2018-09-18T21:17:43.169Z,73.00
2018-09-18T21:22:51.479Z,73.70
2018-09-18T21:25:23.634Z,74.80
2018-09-18T21:27:51.823Z,74.20
2018-09-18T21:30:20.188Z,74.40
2018-09-18T21:32:49.208Z,74.90
2018-09-18T21:35:18.431Z,75.30
2018-09-18T21:37:46.876Z,75.50
2018-09-18T21:40:15.264Z,75.50
2018-09-18T21:42:45.995Z,75.50
2018-09-18T21:45:14.485Z,76.00
2018-09-18T21:47:42.862Z,76.00
2018-09-18T21:50:13.552Z,75.70
2018-09-18T21:52:42.116Z,75.80
2018-09-18T21:55:10.559Z,75.60
2018-09-18T21:57:49.989Z,75.70
2018-09-18T22:00:18.396Z,75.70
2018-09-18T22:02:46.815Z,75.70
2018-09-18T22:05:15.455Z,76.00
2018-09-18T22:07:44.911Z,75.90
2018-09-18T22:10:13.264Z,75.70
2018-09-18T22:12:41.704Z,76.10
2018-09-18T22:15:10.436Z,76.10
2018-09-18T22:17:39.042Z,76.50
2018-09-18T22:20:07.995Z,76.60
2018-09-18T22:22:36.575Z,76.80
2018-09-18T22:25:05.196Z,77.00
2018-09-18T22:27:33.657Z,76.90
2018-09-18T22:30:02.479Z,76.70
2018-09-18T22:32:30.934Z,76.50
2018-09-18T22:34:59.811Z,76.70
2018-09-18T22:37:29.124Z,77.00
2018-09-18T22:39:57.750Z,76.90
2018-09-18T22:42:26.218Z,77.00
2018-09-18T22:44:54.724Z,77.00
2018-09-18T22:47:23.179Z,77.20
2018-09-18T22:49:52.181Z,77.20
2018-09-18T22:52:21.098Z,77.40
2018-09-18T22:54:49.563Z,77.30
2018-09-18T22:57:17.988Z,77.30
2018-09-18T22:59:48.317Z,77.60
2018-09-18T23:02:17.112Z,77.80
2018-09-18T23:04:45.695Z,78.50
2018-09-18T23:07:14.168Z,78.10
2018-09-18T23:09:42.550Z,77.70
2018-09-18T23:12:11.773Z,78.00
2018-09-18T23:14:40.586Z,78.20
2018-09-18T23:17:09.011Z,78.40
2018-09-18T23:19:39.732Z,78.80
2018-09-18T23:22:09.070Z,78.30
2018-09-18T23:24:37.496Z,78.40
2018-09-18T23:27:06.006Z,78.10
2018-09-18T23:29:34.470Z,79.30
2018-09-18T23:32:03.198Z,78.70
2018-09-18T23:34:31.596Z,78.70
2018-09-18T23:39:39.464Z,79.10
2018-09-18T23:42:08.573Z,79.10
2018-09-18T23:44:36.989Z,78.90
2018-09-18T23:47:05.584Z,78.90
2018-09-18T23:49:35.676Z,78.90
2018-09-18T23:52:04.096Z,79.60
2018-09-18T23:55:35.701Z,79.20
2018-09-18T23:58:04.048Z,79.40
